Time;durP1;ratioP1;P1;durP2;ratioP2;P2;SDS_P1;SDS_P2;PMS_P1;PMS_P2;Temp;Humidity;BMP_temperature;BMP_pressure;BME280_temperature;BME280_humidity;BME280_pressure;Samples;Min_cycle;Max_cycle;Signal;HPM_P1;HPM_P2
2024/02/18 00:00:07;;;;;;;7.83;3.90;;;10.70;99.90;;;;;;5016425;28;20252;-61
2024/02/18 00:02:35;;;;;;;7.27;3.37;;;10.70;99.90;;;;;;5013636;28;20351;-62
2024/02/18 00:05:05;;;;;;;7.77;3.67;;;10.80;99.90;;;;;;5012720;28;20205;-62
2024/02/18 00:07:34;;;;;;;14.17;4.07;;;10.70;99.90;;;;;;5014160;28;20246;-61
2024/02/18 00:10:05;;;;;;;8.37;3.50;;;10.70;99.90;;;;;;5011877;28;20241;-62
2024/02/18 00:12:33;;;;;;;6.93;3.50;;;10.70;99.90;;;;;;5016460;28;20221;-61
2024/02/18 00:15:02;;;;;;;13.90;3.80;;;10.70;99.90;;;;;;5018593;28;20236;-61
2024/02/18 00:17:31;;;;;;;7.83;3.20;;;10.70;99.90;;;;;;5007189;28;20221;-61
2024/02/18 00:19:59;;;;;;;11.27;3.20;;;10.70;99.90;;;;;;5017260;28;20779;-61
2024/02/18 00:22:28;;;;;;;7.60;3.10;;;10.70;99.90;;;;;;4984564;28;20241;-61
2024/02/18 00:24:56;;;;;;;7.67;3.13;;;10.70;99.90;;;;;;4992132;28;20226;-61
2024/02/18 00:27:26;;;;;;;7.97;2.70;;;10.70;99.90;;;;;;4990052;28;20222;-61
2024/02/18 00:29:54;;;;;;;4.60;2.83;;;10.70;99.90;;;;;;4994107;28;20249;-61
2024/02/18 00:32:22;;;;;;;6.33;3.10;;;10.70;99.90;;;;;;4996688;28;20206;-62
2024/02/18 00:34:51;;;;;;;9.00;3.10;;;10.70;99.90;;;;;;4992398;28;20198;-62
2024/02/18 00:37:19;;;;;;;9.87;3.07;;;10.70;99.90;;;;;;4995430;28;20241;-62
2024/02/18 00:39:47;;;;;;;9.50;3.27;;;10.70;99.90;;;;;;4991658;28;20218;-62
2024/02/18 00:42:16;;;;;;;8.03;3.07;;;10.70;99.90;;;;;;4997201;28;20261;-61
2024/02/18 00:44:45;;;;;;;10.40;3.10;;;10.70;99.90;;;;;;4998268;28;20353;-61
2024/02/18 00:47:14;;;;;;;3.53;3.10;;;10.70;99.90;;;;;;4998104;28;20230;-61
2024/02/18 00:49:42;;;;;;;4.73;3.13;;;10.60;99.90;;;;;;5013870;28;20715;-61
2024/02/18 00:52:13;;;;;;;7.87;3.07;;;10.60;99.90;;;;;;4995664;28;20309;-61
2024/02/18 00:54:41;;;;;;;12.40;3.57;;;10.60;99.90;;;;;;4995718;28;20577;-61
2024/02/18 00:57:10;;;;;;;7.33;3.07;;;10.60;99.90;;;;;;4993829;28;20241;-61
2024/02/18 00:59:38;;;;;;;6.13;3.17;;;10.60;99.90;;;;;;4997223;28;20269;-61
2024/02/18 01:02:08;;;;;;;5.20;3.37;;;10.70;99.80;;;;;;4998110;28;20206;-61
2024/02/18 01:04:36;;;;;;;12.40;3.40;;;10.70;98.60;;;;;;4999134;28;20233;-61
2024/02/18 01:07:05;;;;;;;7.57;3.43;;;10.70;96.40;;;;;;4994702;28;20222;-62
2024/02/18 01:09:34;;;;;;;10.07;3.10;;;10.70;95.70;;;;;;4999091;28;20638;-61
2024/02/18 01:12:03;;;;;;;11.50;3.90;;;10.70;93.50;;;;;;4995867;28;20226;-61
2024/02/18 01:14:31;;;;;;;11.83;3.70;;;10.70;93.60;;;;;;4995416;28;20297;-61
2024/02/18 01:16:59;;;;;;;8.97;3.60;;;10.60;95.00;;;;;;4997276;28;20297;-61
2024/02/18 01:19:29;;;;;;;10.90;3.60;;;10.60;93.80;;;;;;4996423;28;20225;-61
2024/02/18 01:21:57;;;;;;;10.37;3.50;;;10.60;93.50;;;;;;4989600;28;20257;-61
2024/02/18 01:24:25;;;;;;;7.43;3.50;;;10.60;91.20;;;;;;4992983;28;20222;-62
2024/02/18 01:26:54;;;;;;;6.03;3.57;;;10.60;90.00;;;;;;4996417;28;20234;-61
2024/02/18 01:29:22;;;;;;;12.43;3.43;;;10.60;93.00;;;;;;4995684;28;20657;-61
2024/02/18 01:31:50;;;;;;;8.23;3.67;;;10.60;88.20;;;;;;4992380;28;20195;-61
2024/02/18 01:34:19;;;;;;;9.37;3.23;;;10.60;80.20;;;;;;4997522;28;20230;-61
2024/02/18 01:36:48;;;;;;;4.80;3.43;;;10.70;76.10;;;;;;4997526;28;20245;-61
2024/02/18 01:39:17;;;;;;;7.20;3.90;;;10.70;80.10;;;;;;4996162;28;20225;-61
2024/02/18 01:41:46;;;;;;;5.73;3.40;;;10.60;77.90;;;;;;4996288;28;20640;-61
2024/02/18 01:44:14;;;;;;;11.63;4.07;;;10.70;80.20;;;;;;4995209;28;20230;-61
2024/02/18 01:46:43;;;;;;;6.57;3.73;;;10.60;77.80;;;;;;4994947;28;20222;-61
2024/02/18 01:49:12;;;;;;;11.10;3.70;;;10.60;83.70;;;;;;4994306;28;20221;-61
2024/02/18 01:51:40;;;;;;;8.00;3.50;;;10.60;80.80;;;;;;5009347;28;20221;-61
2024/02/18 01:54:10;;;;;;;9.80;3.67;;;10.60;74.20;;;;;;5009951;28;20218;-61
2024/02/18 01:56:40;;;;;;;6.20;3.43;;;10.70;67.40;;;;;;4997238;28;20226;-61
2024/02/18 01:59:09;;;;;;;12.03;3.47;;;10.60;72.30;;;;;;5001622;28;20516;-61
2024/02/18 02:01:38;;;;;;;11.03;3.90;;;10.60;71.20;;;;;;4994611;28;20594;-61
2024/02/18 02:04:07;;;;;;;10.73;3.60;;;10.60;72.00;;;;;;4994972;28;20230;-62
2024/02/18 02:06:37;;;;;;;9.07;3.63;;;10.60;70.00;;;;;;5000650;28;20667;-62
2024/02/18 02:09:07;;;;;;;6.83;3.67;;;10.60;65.90;;;;;;4997064;28;20246;-61
2024/02/18 02:11:37;;;;;;;9.43;3.83;;;10.60;68.60;;;;;;4997847;28;20209;-61
2024/02/18 02:14:06;;;;;;;5.17;3.60;;;10.60;62.00;;;;;;4997403;28;20198;-61
2024/02/18 02:16:34;;;;;;;9.27;3.90;;;10.60;60.60;;;;;;5009087;28;20232;-61
2024/02/18 02:19:02;;;;;;;6.43;3.90;;;10.60;66.80;;;;;;5001110;28;20226;-61
2024/02/18 02:21:31;;;;;;;12.40;4.23;;;10.60;66.80;;;;;;4996650;28;20305;-61
2024/02/18 02:23:59;;;;;;;6.70;3.67;;;10.60;65.60;;;;;;4995198;28;20226;-61
2024/02/18 02:26:32;;;;;;;9.10;3.37;;;10.50;70.90;;;;;;4996834;28;20269;-61
2024/02/18 02:29:11;;;;;;;10.37;3.70;;;10.50;76.80;;;;;;4997296;28;20198;-61
2024/02/18 02:31:41;;;;;;;16.90;4.03;;;10.50;88.80;;;;;;5009515;28;20225;-61
2024/02/18 02:34:09;;;;;;;6.13;4.20;;;10.40;93.30;;;;;;4998413;28;20225;-60
2024/02/18 02:36:38;;;;;;;6.53;3.80;;;10.50;90.30;;;;;;4994904;28;20226;-61
2024/02/18 02:39:08;;;;;;;8.67;3.63;;;10.50;91.60;;;;;;5002382;28;20222;-61
2024/02/18 02:41:36;;;;;;;6.87;3.73;;;10.40;91.60;;;;;;5007408;28;20234;-60
2024/02/18 02:44:05;;;;;;;7.63;3.43;;;10.40;93.10;;;;;;5000211;28;20697;-61
2024/02/18 02:46:34;;;;;;;10.83;4.13;;;10.40;97.70;;;;;;4995371;28;20915;-61
2024/02/18 02:49:02;;;;;;;8.83;3.77;;;10.40;96.10;;;;;;4996925;28;20225;-61
2024/02/18 02:51:30;;;;;;;8.17;3.67;;;10.40;94.00;;;;;;4994600;28;20301;-62
2024/02/18 02:53:59;;;;;;;10.57;4.20;;;10.40;95.00;;;;;;4998042;28;20289;-61
2024/02/18 02:56:27;;;;;;;5.73;4.00;;;10.40;99.00;;;;;;4994723;28;20218;-61
2024/02/18 02:58:55;;;;;;;7.77;3.90;;;10.40;97.50;;;;;;4999721;28;20203;-62
2024/02/18 03:01:25;;;;;;;10.00;4.00;;;10.30;97.80;;;;;;4997453;28;20213;-61
2024/02/18 03:03:53;;;;;;;10.07;3.70;;;10.30;91.10;;;;;;4999022;28;20226;-61
2024/02/18 03:06:22;;;;;;;12.33;4.23;;;10.40;90.10;;;;;;4998859;28;20229;-62
2024/02/18 03:08:50;;;;;;;6.97;3.60;;;10.30;83.90;;;;;;5005899;28;20221;-61
2024/02/18 03:11:19;;;;;;;11.07;4.00;;;10.30;92.40;;;;;;5015542;28;20210;-61
2024/02/18 03:13:48;;;;;;;7.93;3.80;;;10.30;94.30;;;;;;5021398;28;20194;-61
2024/02/18 03:16:16;;;;;;;13.13;4.10;;;10.30;88.30;;;;;;5016956;28;20225;-61
2024/02/18 03:18:46;;;;;;;9.33;3.90;;;10.30;79.80;;;;;;5017191;28;20217;-61
2024/02/18 03:21:14;;;;;;;10.03;4.30;;;10.30;84.40;;;;;;5015701;28;20291;-61
2024/02/18 03:23:44;;;;;;;11.27;3.90;;;10.30;82.50;;;;;;5019555;28;20228;-61
2024/02/18 03:26:13;;;;;;;7.90;3.47;;;10.30;77.70;;;;;;5017930;28;20333;-61
2024/02/18 03:28:41;;;;;;;7.43;3.90;;;10.30;70.20;;;;;;5019476;28;20222;-61
2024/02/18 03:31:17;;;;;;;15.60;3.80;;;10.30;71.30;;;;;;5017358;28;20221;-61
2024/02/18 03:33:47;;;;;;;10.90;3.67;;;10.20;72.30;;;;;;5012476;28;20272;-61
2024/02/18 03:36:16;;;;;;;10.30;3.70;;;10.20;70.00;;;;;;5018573;28;20620;-61
2024/02/18 03:38:47;;;;;;;11.13;3.63;;;10.30;61.70;;;;;;5018010;28;20222;-61
2024/02/18 03:41:15;;;;;;;11.27;3.70;;;10.30;61.20;;;;;;5008279;28;20194;-60
2024/02/18 03:43:43;;;;;;;11.90;3.43;;;10.20;64.80;;;;;;5016935;28;20186;-61
2024/02/18 03:46:11;;;;;;;8.60;3.23;;;10.20;69.00;;;;;;5012574;28;20261;-61
2024/02/18 03:48:40;;;;;;;10.93;3.67;;;10.20;63.80;;;;;;5013371;28;20718;-61
2024/02/18 03:51:15;;;;;;;13.90;4.07;;;10.20;70.90;;;;;;5014666;28;20236;-61
2024/02/18 03:53:43;;;;;;;11.53;3.53;;;10.20;69.20;;;;;;5011810;28;20226;-61
2024/02/18 03:56:12;;;;;;;8.63;3.40;;;10.20;65.70;;;;;;5017116;28;20225;-61
2024/02/18 03:58:40;;;;;;;13.47;3.47;;;10.20;76.00;;;;;;5019697;28;20249;-61
2024/02/18 04:01:09;;;;;;;9.07;3.60;;;10.10;67.60;;;;;;5013938;28;20664;-61
2024/02/18 04:03:37;;;;;;;8.23;3.40;;;10.10;64.70;;;;;;5013350;28;20241;-61
2024/02/18 04:06:06;;;;;;;7.53;3.33;;;10.10;67.10;;;;;;5013867;28;20688;-61
2024/02/18 04:08:36;;;;;;;8.70;3.40;;;10.10;61.80;;;;;;5015838;28;20202;-61
2024/02/18 04:11:04;;;;;;;5.20;2.97;;;10.10;62.30;;;;;;5012251;28;20555;-61
2024/02/18 04:13:32;;;;;;;7.20;3.27;;;10.10;57.80;;;;;;5015030;28;20225;-61
2024/02/18 04:16:00;;;;;;;6.30;3.37;;;10.10;60.80;;;;;;5015764;28;20231;-61
2024/02/18 04:18:29;;;;;;;6.37;3.13;;;10.10;55.80;;;;;;5012237;28;20317;-61
2024/02/18 04:20:57;;;;;;;4.60;3.23;;;10.10;56.80;;;;;;5015618;28;21122;-61
2024/02/18 04:23:25;;;;;;;9.77;3.20;;;10.10;51.40;;;;;;5012682;28;20200;-61
2024/02/18 04:25:55;;;;;;;9.23;3.37;;;10.10;56.80;;;;;;5010456;28;20242;-61
2024/02/18 04:28:23;;;;;;;6.77;2.90;;;10.10;55.30;;;;;;5009644;28;20217;-62
2024/02/18 04:30:51;;;;;;;5.87;3.00;;;10.10;53.90;;;;;;5010410;28;20684;-61
2024/02/18 04:33:20;;;;;;;9.77;3.20;;;10.10;43.30;;;;;;5014850;28;20224;-61
2024/02/18 04:35:48;;;;;;;9.13;3.23;;;10.10;44.50;;;;;;5016360;28;20236;-60
2024/02/18 04:38:16;;;;;;;10.03;3.43;;;10.10;33.30;;;;;;5013554;28;20202;-61
2024/02/18 04:40:45;;;;;;;8.30;3.33;;;10.10;22.70;;;;;;5014108;28;21254;-61
2024/02/18 04:43:16;;;;;;;5.60;3.47;;;10.10;25.10;;;;;;5013550;28;20226;-61
2024/02/18 04:45:45;;;;;;;7.07;3.07;;;10.10;37.30;;;;;;5013509;28;20221;-61
2024/02/18 04:48:14;;;;;;;6.57;3.10;;;10.10;32.20;;;;;;5010832;28;20855;-61
2024/02/18 04:50:42;;;;;;;8.47;3.50;;;10.10;20.60;;;;;;5013025;28;20225;-61
2024/02/18 04:53:10;;;;;;;13.33;3.77;;;10.10;19.80;;;;;;5013533;28;20244;-61
2024/02/18 04:55:39;;;;;;;12.47;3.50;;;10.10;20.20;;;;;;5013987;28;20304;-61
2024/02/18 04:58:10;;;;;;;8.97;3.40;;;10.10;28.90;;;;;;5013137;28;20861;-61
2024/02/18 05:00:40;;;;;;;9.27;3.43;;;10.10;34.40;;;;;;5013466;28;20308;-60
2024/02/18 05:03:08;;;;;;;7.67;3.43;;;10.10;31.50;;;;;;5019768;28;20295;-61
2024/02/18 05:05:37;;;;;;;9.37;3.63;;;10.10;44.00;;;;;;5017217;28;20581;-61
2024/02/18 05:08:06;;;;;;;7.30;3.10;;;10.00;56.20;;;;;;5016865;28;20198;-61
2024/02/18 05:10:34;;;;;;;11.90;3.30;;;10.00;61.60;;;;;;5013080;28;20217;-60
2024/02/18 05:13:02;;;;;;;7.40;3.33;;;10.00;51.80;;;;;;5018249;28;20227;-61
2024/02/18 05:15:31;;;;;;;3.80;2.87;;;10.00;48.70;;;;;;5013953;28;20232;-61
2024/02/18 05:18:00;;;;;;;8.23;3.33;;;10.00;57.40;;;;;;5018192;28;20232;-60
2024/02/18 05:20:29;;;;;;;9.03;3.27;;;10.00;37.00;;;;;;5010566;28;20202;-60
2024/02/18 05:22:57;;;;;;;8.77;3.60;;;10.00;44.40;;;;;;5013763;28;20204;-61
2024/02/18 05:25:26;;;;;;;7.40;3.47;;;9.90;45.20;;;;;;5015369;28;20220;-61
2024/02/18 05:27:54;;;;;;;9.93;3.50;;;9.90;46.00;;;;;;5017253;28;20926;-61
2024/02/18 05:30:23;;;;;;;4.20;3.20;;;9.90;54.30;;;;;;5016695;28;20587;-61
2024/02/18 05:32:52;;;;;;;7.90;3.50;;;9.90;61.30;;;;;;5048528;28;20232;-61
2024/02/18 05:35:21;;;;;;;8.87;3.73;;;9.90;66.90;;;;;;5013766;28;20608;-61
2024/02/18 05:37:50;;;;;;;8.53;3.70;;;9.80;81.50;;;;;;5014877;28;20272;-60
2024/02/18 05:40:18;;;;;;;7.47;3.40;;;9.80;71.60;;;;;;5015237;28;20237;-61
2024/02/18 05:42:46;;;;;;;8.43;3.40;;;9.80;81.60;;;;;;5011317;28;20221;-61
2024/02/18 05:45:20;;;;;;;12.00;3.43;;;9.80;90.80;;;;;;5012656;28;20210;-60
2024/02/18 05:47:48;;;;;;;5.23;3.07;;;9.70;83.50;;;;;;5018016;28;20300;-61
2024/02/18 05:50:17;;;;;;;9.67;3.33;;;9.80;81.80;;;;;;5010350;28;20199;-61
2024/02/18 05:52:46;;;;;;;7.60;3.27;;;9.80;88.30;;;;;;5012052;28;20229;-61
2024/02/18 05:55:14;;;;;;;9.50;3.60;;;9.70;95.20;;;;;;5017375;28;20213;-61
2024/02/18 05:57:43;;;;;;;10.00;3.47;;;9.70;94.30;;;;;;5016201;28;20218;-60
2024/02/18 06:00:12;;;;;;;7.10;3.40;;;9.70;99.70;;;;;;5015330;28;20256;-61
2024/02/18 06:02:41;;;;;;;11.90;3.57;;;9.70;99.90;;;;;;5018337;28;20226;-61
2024/02/18 06:05:11;;;;;;;12.07;3.40;;;9.60;99.90;;;;;;5016830;28;20202;-61
2024/02/18 06:07:39;;;;;;;7.70;3.50;;;9.60;99.90;;;;;;5019910;28;20216;-61
2024/02/18 06:10:10;;;;;;;7.60;3.60;;;9.60;99.90;;;;;;5012890;28;20659;-60
2024/02/18 06:12:40;;;;;;;9.70;3.43;;;9.50;99.90;;;;;;5015512;28;20217;-60
2024/02/18 06:15:09;;;;;;;12.60;3.80;;;9.50;99.90;;;;;;5017522;28;20229;-61
2024/02/18 06:17:37;;;;;;;5.90;3.37;;;9.50;99.90;;;;;;5009159;28;20238;-61
2024/02/18 06:20:08;;;;;;;7.47;3.60;;;9.40;99.90;;;;;;4996949;28;20203;-61
2024/02/18 06:22:36;;;;;;;13.20;3.63;;;9.50;99.90;;;;;;4986366;28;20218;-61
2024/02/18 06:25:05;;;;;;;9.03;3.37;;;9.50;99.90;;;;;;4997112;28;20301;-61
2024/02/18 06:27:35;;;;;;;5.93;3.57;;;9.40;99.90;;;;;;4996812;28;20225;-60
2024/02/18 06:30:05;;;;;;;6.63;3.20;;;9.40;99.90;;;;;;5032046;28;20219;-61
2024/02/18 06:32:34;;;;;;;11.80;3.33;;;9.40;99.90;;;;;;4995953;28;20265;-61
2024/02/18 06:35:02;;;;;;;6.97;3.33;;;9.40;99.90;;;;;;4998538;28;20194;-61
2024/02/18 06:37:31;;;;;;;4.77;3.20;;;9.30;99.90;;;;;;5000036;28;20229;-61
2024/02/18 06:39:59;;;;;;;15.40;3.67;;;9.30;99.90;;;;;;4996059;28;20249;-61
2024/02/18 06:42:28;;;;;;;7.97;3.13;;;9.30;99.90;;;;;;4998863;28;20613;-61
2024/02/18 06:44:58;;;;;;;11.43;3.80;;;9.30;99.90;;;;;;5000181;28;20226;-61
2024/02/18 06:47:26;;;;;;;7.83;3.50;;;9.30;99.90;;;;;;4996506;28;20190;-60
2024/02/18 06:49:54;;;;;;;4.70;2.90;;;9.40;99.90;;;;;;5000196;28;20646;-61
2024/02/18 06:52:23;;;;;;;8.77;3.50;;;9.40;99.90;;;;;;4995987;28;20243;-60
2024/02/18 06:54:51;;;;;;;9.20;3.30;;;9.40;99.90;;;;;;4997849;28;20241;-60
2024/02/18 06:57:19;;;;;;;10.57;3.73;;;9.40;99.90;;;;;;4998689;28;20233;-60
2024/02/18 06:59:47;;;;;;;6.13;3.20;;;9.40;99.90;;;;;;4997223;28;20223;-61
2024/02/18 07:02:18;;;;;;;12.03;3.27;;;9.40;99.90;;;;;;4995591;28;20201;-60
2024/02/18 07:04:47;;;;;;;8.30;3.23;;;9.40;99.90;;;;;;4998458;28;20193;-61
2024/02/18 07:07:16;;;;;;;9.27;3.43;;;9.40;99.90;;;;;;4998421;28;20288;-61
2024/02/18 07:09:44;;;;;;;7.80;3.40;;;9.40;99.90;;;;;;4999759;28;20226;-61
2024/02/18 07:12:12;;;;;;;9.37;3.43;;;9.40;99.90;;;;;;4997639;28;20218;-61
2024/02/18 07:14:40;;;;;;;8.00;3.30;;;9.40;99.90;;;;;;5001623;28;20705;-61
2024/02/18 07:17:09;;;;;;;10.57;3.47;;;9.40;99.90;;;;;;4997917;28;20195;-61
2024/02/18 07:19:39;;;;;;;9.40;3.20;;;9.40;99.90;;;;;;4996413;28;20775;-60
2024/02/18 07:22:07;;;;;;;10.20;3.30;;;9.40;99.90;;;;;;4999319;28;20226;-61
2024/02/18 07:24:36;;;;;;;9.83;3.20;;;9.40;99.90;;;;;;4997165;28;20269;-61
2024/02/18 07:27:04;;;;;;;9.50;3.60;;;9.40;99.90;;;;;;5003417;28;20229;-60
2024/02/18 07:29:33;;;;;;;7.10;3.40;;;9.40;99.90;;;;;;4993087;28;20210;-61
2024/02/18 07:32:04;;;;;;;8.60;3.83;;;9.40;99.90;;;;;;4992391;28;20205;-61
2024/02/18 07:34:33;;;;;;;10.30;3.77;;;9.40;99.90;;;;;;4995277;28;20225;-61
2024/02/18 07:37:03;;;;;;;9.47;3.23;;;9.50;99.90;;;;;;4992356;28;20313;-61
2024/02/18 07:39:32;;;;;;;9.73;3.03;;;9.50;99.90;;;;;;4992899;28;20223;-60
2024/02/18 07:42:00;;;;;;;10.33;3.90;;;9.50;99.90;;;;;;4993450;28;20677;-61
2024/02/18 07:44:29;;;;;;;10.07;3.13;;;9.50;99.90;;;;;;5001074;28;20565;-61
2024/02/18 07:46:58;;;;;;;3.60;3.20;;;9.50;99.90;;;;;;4996845;28;20205;-60
2024/02/18 07:49:26;;;;;;;7.20;3.23;;;9.50;99.90;;;;;;4995810;28;20237;-61
2024/02/18 07:51:55;;;;;;;4.87;3.47;;;9.60;99.90;;;;;;5000169;28;20306;-61
2024/02/18 07:54:24;;;;;;;7.23;3.30;;;9.50;99.90;;;;;;5001165;28;20632;-60
2024/02/18 07:56:53;;;;;;;6.40;3.33;;;9.60;99.90;;;;;;4987313;28;20223;-60
2024/02/18 07:59:22;;;;;;;7.07;3.77;;;9.60;99.90;;;;;;5000848;28;20187;-60
2024/02/18 08:01:51;;;;;;;8.20;3.50;;;9.60;99.90;;;;;;5000106;28;20280;-60
2024/02/18 08:04:19;;;;;;;14.07;3.30;;;9.70;99.90;;;;;;4990999;28;20272;-60
2024/02/18 08:06:48;;;;;;;9.37;3.80;;;9.60;99.90;;;;;;5004334;28;20249;-61
2024/02/18 08:09:17;;;;;;;8.57;3.43;;;9.60;99.90;;;;;;5023108;28;20632;-60
2024/02/18 08:11:46;;;;;;;12.10;3.47;;;9.60;99.90;;;;;;5008883;28;20278;-61
2024/02/18 08:14:15;;;;;;;11.37;3.47;;;9.70;99.90;;;;;;5009522;28;20218;-61
2024/02/18 08:16:43;;;;;;;10.90;3.50;;;9.60;99.90;;;;;;5020564;28;20209;-60
2024/02/18 08:19:11;;;;;;;6.60;3.20;;;9.70;99.90;;;;;;5003348;28;20218;-61
2024/02/18 08:21:40;;;;;;;15.67;3.93;;;9.70;99.90;;;;;;4997176;28;20221;-61
2024/02/18 08:24:10;;;;;;;9.00;3.00;;;9.70;99.90;;;;;;4993879;28;20230;-61
2024/02/18 08:26:37;;;;;;;10.93;3.60;;;9.70;99.90;;;;;;4996767;28;20250;-60
2024/02/18 08:29:08;;;;;;;5.27;3.00;;;9.70;99.90;;;;;;4993393;28;20285;-60
2024/02/18 08:31:36;;;;;;;9.00;3.63;;;9.70;99.90;;;;;;4995818;28;20565;-59
2024/02/18 08:34:05;;;;;;;5.17;3.10;;;9.70;99.90;;;;;;4995295;28;20582;-60
2024/02/18 08:36:33;;;;;;;8.83;3.30;;;9.70;99.90;;;;;;4990397;28;20248;-60
2024/02/18 08:39:02;;;;;;;9.67;3.33;;;9.70;99.90;;;;;;4994229;28;20219;-60
2024/02/18 08:41:30;;;;;;;6.23;3.00;;;9.70;99.90;;;;;;4994115;28;20194;-60
2024/02/18 08:43:59;;;;;;;7.70;2.90;;;9.70;99.90;;;;;;4995573;28;20286;-60
2024/02/18 08:46:29;;;;;;;14.97;3.13;;;9.70;99.90;;;;;;4992743;28;20215;-61
2024/02/18 08:48:58;;;;;;;10.57;3.10;;;9.70;99.90;;;;;;4992515;28;20647;-61
2024/02/18 08:51:26;;;;;;;8.43;3.20;;;9.80;99.90;;;;;;4996139;28;20230;-60
2024/02/18 08:53:54;;;;;;;8.17;3.30;;;9.80;99.90;;;;;;4998654;28;20264;-61
2024/02/18 08:56:23;;;;;;;9.00;3.17;;;9.80;99.90;;;;;;4993022;28;20205;-61
2024/02/18 08:58:51;;;;;;;6.40;2.87;;;9.90;99.90;;;;;;4997883;28;20252;-60
2024/02/18 09:01:20;;;;;;;5.70;3.03;;;9.90;99.90;;;;;;4995629;28;20700;-60
2024/02/18 09:03:50;;;;;;;7.80;3.30;;;9.90;99.90;;;;;;4992508;28;20214;-61
2024/02/18 09:06:18;;;;;;;6.80;3.13;;;10.00;97.90;;;;;;4998609;28;20276;-60
2024/02/18 09:08:47;;;;;;;6.47;2.80;;;10.00;99.10;;;;;;5012575;28;20245;-60
2024/02/18 09:11:15;;;;;;;8.33;3.20;;;10.10;92.60;;;;;;5014645;28;20351;-57
2024/02/18 09:13:43;;;;;;;6.40;3.27;;;10.10;96.20;;;;;;5011595;28;20222;-61
2024/02/18 09:16:12;;;;;;;10.63;3.37;;;10.20;96.10;;;;;;5016670;28;20220;-61
2024/02/18 09:18:40;;;;;;;5.43;2.70;;;10.20;98.70;;;;;;5010945;28;20225;-61
2024/02/18 09:21:10;;;;;;;7.03;3.00;;;10.20;95.70;;;;;;5011085;28;20222;-61
2024/02/18 09:23:38;;;;;;;11.37;3.00;;;10.30;99.90;;;;;;5009898;28;20225;-61
2024/02/18 09:26:09;;;;;;;10.63;3.00;;;10.20;97.50;;;;;;5014539;28;20207;-61
2024/02/18 09:28:37;;;;;;;11.97;3.37;;;10.30;99.90;;;;;;5010069;28;20241;-60
2024/02/18 09:31:08;;;;;;;3.60;2.80;;;10.30;99.90;;;;;;5011651;28;20221;-60
2024/02/18 09:33:37;;;;;;;12.80;3.13;;;10.40;99.90;;;;;;5006127;28;20213;-61
2024/02/18 09:36:06;;;;;;;8.90;3.60;;;10.30;99.90;;;;;;5018548;28;20703;-61
2024/02/18 09:38:36;;;;;;;6.23;3.00;;;10.30;99.90;;;;;;5017124;28;20581;-61
2024/02/18 09:41:06;;;;;;;4.83;2.93;;;10.30;99.90;;;;;;5014813;28;21170;-60
2024/02/18 09:43:41;;;;;;;8.67;3.13;;;10.20;99.90;;;;;;5006058;28;20244;-60
2024/02/18 09:46:09;;;;;;;9.70;3.20;;;10.10;99.90;;;;;;5007975;28;20229;-60
2024/02/18 09:48:38;;;;;;;6.63;3.30;;;9.90;99.90;;;;;;5016117;28;20221;-60
2024/02/18 09:51:07;;;;;;;7.60;3.10;;;9.80;99.90;;;;;;5013194;28;20767;-59
2024/02/18 09:53:38;;;;;;;8.87;3.17;;;9.70;99.90;;;;;;5019137;28;20627;-60
2024/02/18 09:56:07;;;;;;;5.90;3.10;;;9.60;99.90;;;;;;5016833;28;20316;-58
2024/02/18 09:58:35;;;;;;;7.27;3.10;;;9.50;99.90;;;;;;5015987;28;20233;-60
2024/02/18 10:01:04;;;;;;;7.43;3.77;;;9.40;99.90;;;;;;5016341;28;20312;-59
2024/02/18 10:03:32;;;;;;;11.37;3.80;;;9.40;99.90;;;;;;5027262;28;20722;-60
2024/02/18 10:06:01;;;;;;;10.17;3.57;;;9.30;99.90;;;;;;5008492;28;20238;-58
2024/02/18 10:08:43;;;;;;;9.63;3.67;;;9.20;99.90;;;;;;4996213;28;20285;-59
2024/02/18 10:11:11;;;;;;;10.40;3.50;;;9.20;99.90;;;;;;5003790;28;20198;-59
2024/02/18 10:13:39;;;;;;;10.97;3.67;;;9.20;99.90;;;;;;4998790;28;20305;-59
2024/02/18 10:16:08;;;;;;;3.80;3.30;;;9.10;99.90;;;;;;5002867;28;20217;-59
2024/02/18 10:18:37;;;;;;;9.77;4.10;;;9.10;99.90;;;;;;4997686;28;20227;-60
2024/02/18 10:21:07;;;;;;;8.13;3.63;;;9.10;99.90;;;;;;4996631;28;20218;-59
2024/02/18 10:23:36;;;;;;;6.67;3.60;;;9.10;99.90;;;;;;5000915;28;20324;-58
2024/02/18 10:26:09;;;;;;;3.70;3.37;;;9.10;99.90;;;;;;5003954;28;20210;-59
2024/02/18 10:28:37;;;;;;;6.30;3.80;;;9.10;99.90;;;;;;4997962;28;20218;-60
2024/02/18 10:31:11;;;;;;;6.40;4.30;;;9.10;99.90;;;;;;4997286;28;20230;-60
2024/02/18 10:33:41;;;;;;;8.37;3.80;;;9.10;99.90;;;;;;5005754;28;20234;-59
2024/02/18 10:36:11;;;;;;;11.90;4.23;;;9.00;99.90;;;;;;5006031;28;20704;-59
2024/02/18 10:38:44;;;;;;;15.40;4.00;;;9.00;99.90;;;;;;4998585;28;20581;-60
2024/02/18 10:41:17;;;;;;;9.03;4.20;;;9.00;99.90;;;;;;4997125;28;20202;-59
2024/02/18 10:43:50;;;;;;;5.97;4.13;;;9.00;99.90;;;;;;4996539;28;20305;-60
2024/02/18 10:46:21;;;;;;;5.87;3.60;;;9.00;99.90;;;;;;4994798;28;20226;-59
2024/02/18 10:48:53;;;;;;;6.90;4.10;;;9.00;99.90;;;;;;4997433;28;20214;-60
2024/02/18 10:51:26;;;;;;;9.03;4.53;;;9.00;99.90;;;;;;4997695;28;20628;-59
2024/02/18 10:54:04;;;;;;;6.67;4.37;;;9.00;99.90;;;;;;4995013;28;20227;-59
2024/02/18 10:56:35;;;;;;;9.40;4.63;;;9.00;99.90;;;;;;4992749;28;20542;-59
2024/02/18 10:59:08;;;;;;;5.43;4.23;;;8.90;99.90;;;;;;4995779;28;20209;-59
2024/02/18 11:01:43;;;;;;;5.53;4.27;;;9.00;99.90;;;;;;4994535;28;20231;-58
2024/02/18 11:04:12;;;;;;;11.47;5.00;;;9.00;99.90;;;;;;5015459;28;20238;-59
2024/02/18 11:06:43;;;;;;;7.57;4.80;;;9.00;99.90;;;;;;4997343;28;20249;-59
2024/02/18 11:09:12;;;;;;;7.13;4.50;;;9.00;99.90;;;;;;4994853;28;20223;-60
2024/02/18 11:11:43;;;;;;;12.20;4.90;;;9.00;99.90;;;;;;4997051;28;20244;-59
2024/02/18 11:14:13;;;;;;;6.47;4.57;;;9.00;99.90;;;;;;4995424;28;20585;-59
2024/02/18 11:16:43;;;;;;;8.17;4.23;;;9.00;99.90;;;;;;5015875;28;20212;-59
2024/02/18 11:19:12;;;;;;;7.37;4.63;;;9.00;99.90;;;;;;4995924;28;20307;-59
2024/02/18 11:21:43;;;;;;;7.47;4.40;;;9.00;99.90;;;;;;4995080;28;20218;-59
2024/02/18 11:24:13;;;;;;;6.80;4.20;;;9.00;99.90;;;;;;4989087;28;20269;-59
2024/02/18 11:26:42;;;;;;;9.97;4.70;;;9.10;99.90;;;;;;4991784;28;20233;-59
2024/02/18 11:29:11;;;;;;;6.57;4.30;;;9.20;99.90;;;;;;4993274;28;20760;-59
2024/02/18 11:31:39;;;;;;;9.10;5.13;;;9.30;99.90;;;;;;4996425;28;20228;-59
2024/02/18 11:34:08;;;;;;;7.07;4.33;;;9.40;99.90;;;;;;4994473;28;20229;-59
2024/02/18 11:36:36;;;;;;;4.53;4.07;;;9.40;99.90;;;;;;5005369;28;20256;-59
2024/02/18 11:39:07;;;;;;;6.43;4.73;;;9.40;99.90;;;;;;4993183;28;20233;-60
2024/02/18 11:41:36;;;;;;;5.80;4.67;;;9.40;99.90;;;;;;4993189;28;20313;-59
2024/02/18 11:44:10;;;;;;;9.70;4.53;;;9.50;99.90;;;;;;4993701;28;20558;-59
2024/02/18 11:46:40;;;;;;;5.10;4.57;;;9.50;99.90;;;;;;4996295;28;20215;-60
2024/02/18 11:49:09;;;;;;;5.53;4.37;;;9.50;99.90;;;;;;5012637;28;20313;-59
2024/02/18 11:51:37;;;;;;;10.17;4.70;;;9.50;99.90;;;;;;5016626;28;20222;-60
2024/02/18 11:54:06;;;;;;;7.00;4.70;;;9.50;99.90;;;;;;5016057;28;20232;-59
2024/02/18 11:56:35;;;;;;;5.53;4.73;;;9.50;99.90;;;;;;5011085;28;20230;-59
2024/02/18 11:59:03;;;;;;;7.33;5.10;;;9.50;99.90;;;;;;5014197;28;20228;-59
2024/02/18 12:01:35;;;;;;;8.50;5.10;;;9.50;99.90;;;;;;5016689;28;20233;-60
2024/02/18 12:04:05;;;;;;;14.10;5.20;;;9.60;99.90;;;;;;5015362;28;20222;-59
2024/02/18 12:06:35;;;;;;;5.63;4.50;;;9.50;99.90;;;;;;5017707;28;20221;-59
2024/02/18 12:09:12;;;;;;;9.97;5.10;;;9.50;99.90;;;;;;5014001;28;20226;-59
2024/02/18 12:11:44;;;;;;;12.97;6.10;;;9.50;99.90;;;;;;5014662;28;20218;-59
2024/02/18 12:14:13;;;;;;;8.53;5.77;;;9.50;99.90;;;;;;5028463;28;20700;-59
2024/02/18 12:16:45;;;;;;;9.40;6.20;;;9.60;99.90;;;;;;4990399;28;20231;-59
2024/02/18 12:19:14;;;;;;;8.43;6.30;;;9.60;99.90;;;;;;4991426;28;20305;-59
2024/02/18 12:21:52;;;;;;;13.03;6.20;;;9.70;99.90;;;;;;4996488;28;20220;-60
2024/02/18 12:24:21;;;;;;;9.17;7.17;;;9.70;99.90;;;;;;4995898;28;20229;-59
2024/02/18 12:26:49;;;;;;;8.37;6.60;;;9.70;99.90;;;;;;5002408;28;20237;-60
2024/02/18 12:29:18;;;;;;;8.60;6.60;;;9.70;99.90;;;;;;4995828;28;20253;-60
2024/02/18 12:31:49;;;;;;;11.03;7.37;;;9.70;99.90;;;;;;4997138;28;20201;-60
2024/02/18 12:34:19;;;;;;;9.77;7.63;;;9.80;99.90;;;;;;5014025;28;20253;-59
2024/02/18 12:36:48;;;;;;;15.90;7.80;;;9.80;99.90;;;;;;5017441;28;20234;-60
2024/02/18 12:39:16;;;;;;;12.93;8.10;;;9.80;99.90;;;;;;5011097;28;20244;-59
2024/02/18 12:41:46;;;;;;;10.10;8.00;;;9.90;99.90;;;;;;5017867;28;20320;-59
2024/02/18 12:44:14;;;;;;;15.37;8.67;;;10.00;99.90;;;;;;5016383;28;20194;-60
2024/02/18 12:47:04;;;;;;;13.17;8.17;;;10.10;99.90;;;;;;5014527;28;20212;-60
2024/02/18 12:49:33;;;;;;;14.37;8.13;;;10.20;99.90;;;;;;4993849;28;20217;-59
2024/02/18 12:52:06;;;;;;;10.57;7.60;;;10.30;99.90;;;;;;4991893;28;20384;-59
2024/02/18 12:54:35;;;;;;;11.77;8.27;;;10.30;99.90;;;;;;4994693;28;20214;-59
2024/02/18 12:57:06;;;;;;;11.73;7.60;;;10.40;99.90;;;;;;4997233;28;20219;-59